createdAt,value
2023-04-26T00:01:33.151Z,98995.39
2023-04-26T00:04:00.752Z,98999.70
2023-04-26T00:06:27.967Z,98999.27
2023-04-26T00:08:55.584Z,98999.42
2023-04-26T00:11:23.140Z,99000.17
2023-04-26T00:13:50.081Z,99001.25
2023-04-26T00:16:18.479Z,99000.01
2023-04-26T00:18:46.353Z,99006.29
2023-04-26T00:21:13.266Z,99003.71
2023-04-26T00:23:40.838Z,99003.71
2023-04-26T00:26:07.775Z,99005.48
2023-04-26T00:28:34.975Z,99009.35
2023-04-26T00:31:01.916Z,99004.36
2023-04-26T00:33:30.602Z,99009.70
2023-04-26T00:35:57.585Z,99009.26
2023-04-26T00:38:24.822Z,99007.52
2023-04-26T00:40:51.696Z,99009.20
2023-04-26T00:43:18.863Z,99009.54
2023-04-26T00:45:45.872Z,99010.53
2023-04-26T00:48:13.285Z,99008.11
2023-04-26T00:50:40.275Z,99006.34
2023-04-26T00:53:07.788Z,99007.86
2023-04-26T00:55:35.161Z,99009.08
2023-04-26T00:58:02.305Z,99008.02
2023-04-26T01:00:30.358Z,99009.06
2023-04-26T01:02:57.994Z,99010.29
2023-04-26T01:05:25.205Z,99016.75
2023-04-26T01:07:52.216Z,99014.30
2023-04-26T01:10:19.146Z,99015.10
2023-04-26T01:12:46.844Z,99016.91
2023-04-26T01:15:18.309Z,99020.79
2023-04-26T01:17:48.461Z,99019.94
2023-04-26T01:20:15.704Z,99021.77
2023-04-26T01:22:42.814Z,99022.13
2023-04-26T01:25:12.155Z,99016.40
2023-04-26T01:27:39.965Z,99019.48
2023-04-26T01:30:08.502Z,99021.09
2023-04-26T01:32:36.413Z,99020.39
2023-04-26T01:35:03.467Z,99021.95
2023-04-26T01:37:30.631Z,99025.09
2023-04-26T01:39:59.967Z,99025.05
2023-04-26T01:42:27.049Z,99024.20
2023-04-26T01:44:54.068Z,99026.02
2023-04-26T01:47:22.396Z,99022.89
2023-04-26T01:49:49.468Z,99027.62
2023-04-26T01:52:16.852Z,99025.98
2023-04-26T01:54:46.375Z,99023.30
2023-04-26T01:57:13.439Z,99022.55
2023-04-26T01:59:40.477Z,99023.30
2023-04-26T02:02:07.546Z,99022.26
2023-04-26T02:04:38.248Z,99023.10
2023-04-26T02:07:05.153Z,99027.67
2023-04-26T02:09:32.353Z,99033.83
2023-04-26T02:11:59.369Z,99032.35
2023-04-26T02:14:26.769Z,99034.00
2023-04-26T02:16:53.758Z,99032.31
2023-04-26T02:19:21.172Z,99031.32
2023-04-26T02:21:52.790Z,99031.42
2023-04-26T02:24:20.092Z,99035.41
2023-04-26T02:26:47.077Z,99031.89
2023-04-26T02:29:14.150Z,99035.73
2023-04-26T02:31:41.166Z,99034.77
2023-04-26T02:34:08.972Z,99036.57
2023-04-26T02:36:36.536Z,99039.21
2023-04-26T02:39:03.744Z,99039.70
2023-04-26T02:41:33.801Z,99039.06
2023-04-26T02:44:01.110Z,99041.77
2023-04-26T02:46:28.098Z,99044.69
2023-04-26T02:48:55.192Z,99045.64
2023-04-26T02:51:23.132Z,99045.95
2023-04-26T02:53:50.133Z,99045.95
2023-04-26T02:56:18.183Z,99047.95
2023-04-26T02:58:45.585Z,99050.81
2023-04-26T03:01:13.889Z,99053.48
2023-04-26T03:03:42.702Z,99053.09
2023-04-26T03:06:09.971Z,99055.85
2023-04-26T03:08:37.148Z,99056.89
2023-04-26T03:11:04.135Z,99062.52
2023-04-26T03:13:31.787Z,99066.86
2023-04-26T03:15:58.876Z,99065.44
2023-04-26T03:18:26.252Z,99074.61
2023-04-26T03:20:53.585Z,99077.15
2023-04-26T03:23:24.372Z,99084.09
2023-04-26T03:25:51.901Z,99082.82
2023-04-26T03:28:18.895Z,99086.90
2023-04-26T03:30:46.073Z,99090.79
2023-04-26T03:33:13.979Z,99096.50
2023-04-26T03:35:41.177Z,99097.20
2023-04-26T03:38:08.286Z,99093.21
2023-04-26T03:40:35.226Z,99092.67
2023-04-26T03:43:02.551Z,99095.38
2023-04-26T03:45:29.613Z,99097.31
2023-04-26T03:47:56.932Z,99099.75
2023-04-26T03:50:24.110Z,99101.59
2023-04-26T03:52:51.348Z,99103.29
2023-04-26T03:55:18.378Z,99106.16
2023-04-26T03:57:45.732Z,99105.45
2023-04-26T04:00:14.395Z,99108.02
2023-04-26T04:02:44.731Z,99109.77
2023-04-26T04:05:14.530Z,99111.81
2023-04-26T04:07:42.109Z,99115.64
2023-04-26T04:10:10.719Z,99113.27
2023-04-26T04:12:39.603Z,99115.84
2023-04-26T04:15:07.442Z,99114.53
2023-04-26T04:17:38.262Z,99120.33
2023-04-26T04:20:07.616Z,99120.18
2023-04-26T04:22:36.488Z,99116.31
2023-04-26T04:25:06.054Z,99121.60
2023-04-26T04:27:34.216Z,99123.46
2023-04-26T04:30:04.301Z,99127.61
2023-04-26T04:32:33.036Z,99124.16
2023-04-26T04:35:00.480Z,99126.04
2023-04-26T04:37:27.469Z,99122.51
2023-04-26T04:39:55.368Z,99126.94
2023-04-26T04:42:22.497Z,99131.56
2023-04-26T04:44:50.684Z,99143.56
2023-04-26T04:47:18.112Z,99151.02
2023-04-26T04:49:45.305Z,99143.80
2023-04-26T04:52:12.348Z,99148.19
2023-04-26T04:54:39.468Z,99149.27
2023-04-26T04:57:06.756Z,99149.11
2023-04-26T04:59:33.795Z,99154.62
2023-04-26T05:02:01.639Z,99155.65
2023-04-26T05:04:29.184Z,99157.34
2023-04-26T05:06:56.939Z,99166.30
2023-04-26T05:09:24.254Z,99163.55
2023-04-26T05:11:52.059Z,99167.65
2023-04-26T05:14:19.270Z,99167.81
2023-04-26T05:16:46.358Z,99169.96
2023-04-26T05:19:13.539Z,99172.71
2023-04-26T05:21:40.791Z,99172.67
2023-04-26T05:28:43.505Z,99171.86
2023-04-26T05:31:35.268Z,99176.25
2023-04-26T05:34:10.892Z,99179.81
2023-04-26T05:36:40.052Z,99181.73
2023-04-26T05:39:08.022Z,99187.09
2023-04-26T05:41:36.520Z,99187.01
2023-04-26T05:44:03.889Z,99184.86
2023-04-26T05:46:31.607Z,99185.83
2023-04-26T05:48:58.725Z,99185.16
2023-04-26T05:51:26.528Z,99186.08
2023-04-26T05:53:54.612Z,99185.77
2023-04-26T05:56:24.130Z,99185.27
2023-04-26T05:58:53.069Z,99186.55
2023-04-26T06:01:20.452Z,99186.63
2023-04-26T06:03:47.993Z,99191.91
2023-04-26T06:06:16.973Z,99191.04
2023-04-26T06:08:44.348Z,99188.27
2023-04-26T06:11:12.554Z,99190.40
2023-04-26T06:13:39.728Z,99191.78
2023-04-26T06:16:07.224Z,99192.35
2023-04-26T06:18:35.781Z,99194.69
2023-04-26T06:21:03.496Z,99198.14
2023-04-26T06:23:30.541Z,99200.66
2023-04-26T06:25:57.670Z,99201.48
2023-04-26T06:28:25.597Z,99210.21
2023-04-26T06:30:52.760Z,99211.98
2023-04-26T06:33:20.047Z,99212.12
2023-04-26T06:35:47.023Z,99212.09
2023-04-26T06:38:14.290Z,99217.64
2023-04-26T06:40:41.854Z,99218.95
2023-04-26T06:43:08.995Z,99217.38
2023-04-26T06:45:41.633Z,99224.66
2023-04-26T06:48:11.614Z,99219.71
2023-04-26T06:50:41.857Z,99218.71
2023-04-26T06:53:09.146Z,99222.96
2023-04-26T06:55:36.215Z,99222.45
2023-04-26T06:58:03.447Z,99229.58
2023-04-26T07:00:30.666Z,99231.83
2023-04-26T07:02:57.827Z,99235.67
2023-04-26T07:05:25.179Z,99239.62
2023-04-26T07:07:52.263Z,99242.30
2023-04-26T07:10:22.670Z,99246.55
2023-04-26T07:12:49.906Z,99245.08
2023-04-26T07:15:16.792Z,99245.60
2023-04-26T07:17:44.350Z,99248.79
2023-04-26T07:20:11.844Z,99244.60
2023-04-26T07:22:39.260Z,99240.86
2023-04-26T07:25:06.426Z,99249.73
2023-04-26T07:27:33.466Z,99241.89
2023-04-26T07:30:00.505Z,99248.95
2023-04-26T07:32:28.030Z,99254.56
2023-04-26T07:34:55.945Z,99253.20
2023-04-26T07:37:23.725Z,99259.09
2023-04-26T07:39:51.457Z,99258.13
2023-04-26T07:42:18.855Z,99255.26
2023-04-26T07:44:49.798Z,99253.71
2023-04-26T07:47:17.654Z,99251.64
2023-04-26T07:49:47.536Z,99253.65
2023-04-26T07:52:15.569Z,99258.05
2023-04-26T07:54:47.329Z,99262.90
2023-04-26T07:57:15.417Z,99264.21
2023-04-26T07:59:43.338Z,99265.55
2023-04-26T08:02:12.307Z,99271.56
2023-04-26T08:04:43.675Z,99266.36
2023-04-26T08:07:12.321Z,99267.45
2023-04-26T08:09:40.400Z,99268.51
2023-04-26T08:12:08.988Z,99264.23
2023-04-26T08:14:37.353Z,99254.89
2023-04-26T08:17:05.634Z,99256.77
2023-04-26T08:19:34.573Z,99269.30
2023-04-26T08:22:02.905Z,99264.52
2023-04-26T08:24:32.049Z,99250.93
2023-04-26T08:27:00.353Z,99254.81
2023-04-26T08:29:29.021Z,99264.52
2023-04-26T08:31:57.183Z,99262.83
2023-04-26T08:34:25.292Z,99259.75
2023-04-26T08:36:53.162Z,99264.77
2023-04-26T08:39:21.114Z,99260.11
2023-04-26T08:41:52.972Z,99269.11
2023-04-26T08:44:29.735Z,99272.98
2023-04-26T08:47:17.530Z,99266.75
2023-04-26T08:49:47.827Z,99275.15
2023-04-26T08:52:17.303Z,99275.13
2023-04-26T08:54:44.954Z,99265.46
2023-04-26T08:57:12.416Z,99260.75
2023-04-26T08:59:40.185Z,99250.29
2023-04-26T09:02:07.862Z,99251.39
2023-04-26T09:04:36.725Z,99253.73
2023-04-26T09:07:05.006Z,99259.48
2023-04-26T09:09:38.145Z,99261.73
2023-04-26T09:12:09.847Z,99252.20
2023-04-26T09:14:38.851Z,99254.15
2023-04-26T09:17:06.865Z,99252.76
2023-04-26T09:19:38.518Z,99251.94
2023-04-26T09:22:06.660Z,99248.48
2023-04-26T09:24:49.439Z,99250.72
2023-04-26T09:27:17.784Z,99247.40
2023-04-26T09:30:08.031Z,99246.77
2023-04-26T09:32:58.758Z,99246.20
2023-04-26T09:35:36.771Z,99249.94
2023-04-26T09:38:11.066Z,99246.27
2023-04-26T09:40:43.973Z,99244.52
2023-04-26T09:43:14.685Z,99240.97
2023-04-26T09:45:49.795Z,99242.40
2023-04-26T09:48:18.627Z,99242.86
2023-04-26T09:50:46.788Z,99244.00
2023-04-26T09:53:42.522Z,99242.61
2023-04-26T09:56:11.630Z,99238.34
2023-04-26T09:58:59.133Z,99229.98
2023-04-26T10:01:30.231Z,99232.73
2023-04-26T10:03:58.797Z,99245.46
2023-04-26T10:06:28.549Z,99240.00
2023-04-26T10:08:56.756Z,99242.83
2023-04-26T10:11:24.602Z,99234.73
2023-04-26T10:13:52.615Z,99239.61
2023-04-26T10:16:21.471Z,99231.89
2023-04-26T10:18:49.683Z,99224.97
2023-04-26T10:21:21.845Z,99235.04
2023-04-26T10:23:49.698Z,99240.77
2023-04-26T10:26:53.518Z,99245.09
2023-04-26T10:29:21.637Z,99242.35
2023-04-26T10:32:12.200Z,99241.73
2023-04-26T10:34:42.440Z,99243.20
2023-04-26T10:37:11.369Z,99248.80
2023-04-26T10:39:40.051Z,99241.56
2023-04-26T10:42:25.612Z,99247.91
2023-04-26T10:45:08.385Z,99243.80
2023-04-26T10:47:39.967Z,99234.02
2023-04-26T10:50:09.042Z,99235.91
2023-04-26T10:53:04.142Z,99229.77
2023-04-26T10:55:50.464Z,99234.77
2023-04-26T10:58:34.719Z,99243.48
2023-04-26T11:01:17.593Z,99243.85
2023-04-26T11:04:06.208Z,99242.92
2023-04-26T11:06:53.098Z,99242.14
2023-04-26T11:09:38.103Z,99235.17
2023-04-26T11:12:12.821Z,99229.37
2023-04-26T11:14:44.284Z,99235.48
2023-04-26T11:17:17.824Z,99229.54
2023-04-26T11:19:47.622Z,99229.50
2023-04-26T11:22:25.068Z,99234.20
2023-04-26T11:24:54.707Z,99226.97
2023-04-26T11:27:22.745Z,99229.58
2023-04-26T11:29:51.725Z,99233.84
2023-04-26T11:32:19.436Z,99231.36
2023-04-26T11:34:51.108Z,99235.77
2023-04-26T11:37:19.258Z,99236.59
2023-04-26T11:39:47.162Z,99229.16
2023-04-26T11:42:15.147Z,99228.84
2023-04-26T11:44:43.236Z,99242.28
2023-04-26T11:47:12.220Z,99240.01
2023-04-26T11:49:40.765Z,99236.27
2023-04-26T11:52:09.067Z,99236.04
2023-04-26T11:54:37.866Z,99234.95
2023-04-26T11:57:17.261Z,99235.15
2023-04-26T11:59:47.351Z,99228.92
2023-04-26T12:02:15.292Z,99225.73
2023-04-26T12:04:45.078Z,99229.48
2023-04-26T12:10:16.566Z,99219.02
2023-04-26T12:12:49.193Z,99219.91
2023-04-26T12:15:17.747Z,99220.27
2023-04-26T12:17:59.428Z,99217.70
2023-04-26T12:20:28.557Z,99220.36
2023-04-26T12:23:09.164Z,99218.23
2023-04-26T12:25:38.331Z,99218.17
2023-04-26T12:28:11.897Z,99214.95
2023-04-26T12:30:40.136Z,99211.83
2023-04-26T12:33:16.616Z,99213.16
2023-04-26T12:35:46.886Z,99219.11
2023-04-26T12:38:15.809Z,99217.98
2023-04-26T12:40:45.435Z,99213.52
2023-04-26T12:43:13.636Z,99214.59
2023-04-26T12:45:41.449Z,99209.09
2023-04-26T12:48:09.847Z,99212.30
2023-04-26T12:50:37.767Z,99207.92
2023-04-26T12:53:06.292Z,99209.21
2023-04-26T12:55:34.965Z,99204.71
2023-04-26T12:58:03.309Z,99202.84
2023-04-26T13:00:31.391Z,99201.42
2023-04-26T13:03:01.729Z,99201.09
2023-04-26T13:05:29.858Z,99205.16
2023-04-26T13:07:58.060Z,99201.93
2023-04-26T13:10:26.871Z,99203.09
2023-04-26T13:12:55.920Z,99203.02
2023-04-26T13:15:25.219Z,99201.98
2023-04-26T13:17:54.312Z,99204.54
2023-04-26T13:20:24.919Z,99201.89
2023-04-26T13:22:53.967Z,99204.45
2023-04-26T13:25:22.450Z,99200.39
2023-04-26T13:27:53.845Z,99199.81
2023-04-26T13:30:21.638Z,99192.16
2023-04-26T13:32:49.864Z,99199.95
2023-04-26T13:35:20.931Z,99200.21
2023-04-26T13:37:49.294Z,99204.70
2023-04-26T13:40:19.029Z,99201.61
2023-04-26T13:42:47.290Z,99206.80
2023-04-26T13:45:18.781Z,99205.46
2023-04-26T13:47:47.820Z,99200.58
2023-04-26T13:50:15.869Z,99196.20
2023-04-26T13:52:45.382Z,99198.31
2023-04-26T13:55:14.546Z,99195.48
2023-04-26T13:57:42.741Z,99197.27
2023-04-26T14:00:14.208Z,99197.95
2023-04-26T14:02:42.699Z,99193.92
2023-04-26T14:05:11.178Z,99193.27
2023-04-26T14:07:41.724Z,99195.66
2023-04-26T14:10:09.702Z,99192.30
2023-04-26T14:12:38.568Z,99186.73
2023-04-26T14:15:06.989Z,99192.13
2023-04-26T14:17:34.956Z,99193.42
2023-04-26T14:20:02.865Z,99182.43
2023-04-26T14:22:30.867Z,99173.14
2023-04-26T14:24:59.090Z,99181.65
2023-04-26T14:27:27.532Z,99189.72
2023-04-26T14:29:55.932Z,99184.23
2023-04-26T14:32:24.234Z,99188.13
2023-04-26T14:34:52.066Z,99187.45
2023-04-26T14:37:23.133Z,99189.24
2023-04-26T14:39:51.756Z,99186.77
2023-04-26T14:42:21.271Z,99187.22
2023-04-26T14:44:49.847Z,99188.61
2023-04-26T14:47:18.068Z,99185.90
2023-04-26T14:49:46.260Z,99179.65
2023-04-26T14:52:14.283Z,99190.84
2023-04-26T14:54:43.081Z,99188.52
2023-04-26T14:57:11.605Z,99183.89
2023-04-26T14:59:39.630Z,99185.77
2023-04-26T15:02:08.161Z,99183.90
2023-04-26T15:04:38.247Z,99184.20
2023-04-26T15:07:08.596Z,99190.68
2023-04-26T15:09:39.535Z,99192.65
2023-04-26T15:12:08.072Z,99185.48
2023-04-26T15:14:36.137Z,99191.92
2023-04-26T15:17:04.167Z,99185.42
2023-04-26T15:19:32.865Z,99188.54
2023-04-26T15:22:01.190Z,99190.60
2023-04-26T15:24:30.000Z,99185.34
2023-04-26T15:26:58.095Z,99182.40
2023-04-26T15:29:27.797Z,99179.55
2023-04-26T15:31:55.832Z,99188.79
2023-04-26T15:34:25.270Z,99186.70
2023-04-26T15:36:53.696Z,99190.30
2023-04-26T15:39:21.656Z,99197.65
2023-04-26T15:41:50.000Z,99197.37
2023-04-26T15:44:18.193Z,99196.69
2023-04-26T15:46:46.795Z,99196.36
2023-04-26T15:49:14.925Z,99193.44
2023-04-26T15:51:42.664Z,99193.72
2023-04-26T15:54:10.643Z,99204.10
2023-04-26T15:56:39.614Z,99203.84
2023-04-26T15:59:07.706Z,99204.70
2023-04-26T16:01:37.545Z,99203.09
2023-04-26T16:04:07.001Z,99207.03
2023-04-26T16:06:35.750Z,99206.59
2023-04-26T16:09:23.381Z,99214.88
2023-04-26T16:11:53.696Z,99216.48
2023-04-26T16:14:22.805Z,99215.96
2023-04-26T16:16:52.559Z,99218.77
2023-04-26T16:19:21.281Z,99223.40
2023-04-26T16:21:49.204Z,99221.77
2023-04-26T16:24:19.592Z,99223.66
2023-04-26T16:26:47.889Z,99228.89
2023-04-26T16:29:15.584Z,99233.71
2023-04-26T16:31:44.635Z,99230.86
2023-04-26T16:34:12.904Z,99233.33
2023-04-26T16:36:40.564Z,99232.75
2023-04-26T16:39:09.361Z,99236.86
2023-04-26T16:41:38.388Z,99239.52
2023-04-26T16:44:06.584Z,99243.62
2023-04-26T16:46:34.870Z,99244.22
2023-04-26T16:49:09.264Z,99247.30
2023-04-26T16:51:39.097Z,99250.91
2023-04-26T16:54:07.772Z,99252.57
2023-04-26T16:56:36.913Z,99252.82
2023-04-26T16:59:04.824Z,99255.27
2023-04-26T17:01:33.860Z,99255.67
2023-04-26T17:04:02.108Z,99256.04
2023-04-26T17:06:32.147Z,99254.11
2023-04-26T17:09:00.330Z,99262.00
2023-04-26T17:11:29.638Z,99260.95
2023-04-26T17:13:57.668Z,99259.55
2023-04-26T17:16:26.307Z,99266.80
2023-04-26T17:18:54.757Z,99262.88
2023-04-26T17:21:24.074Z,99268.90
2023-04-26T17:23:52.031Z,99267.52
2023-04-26T17:26:20.418Z,99267.64
2023-04-26T17:28:48.683Z,99272.80
2023-04-26T17:31:17.582Z,99276.08
2023-04-26T17:33:46.758Z,99273.77
2023-04-26T17:36:14.957Z,99277.05
2023-04-26T17:38:44.420Z,99284.64
2023-04-26T17:41:14.086Z,99288.92
2023-04-26T17:45:36.719Z,99289.83
2023-04-26T17:48:06.277Z,99294.63
2023-04-26T17:50:35.347Z,99294.85
2023-04-26T17:53:06.183Z,99293.71
2023-04-26T17:55:36.593Z,99297.11
2023-04-26T17:58:03.912Z,99297.98
2023-04-26T18:00:32.689Z,99296.02
2023-04-26T18:03:04.112Z,99290.88
2023-04-26T18:05:33.810Z,99293.05
2023-04-26T18:08:01.724Z,99288.19
2023-04-26T18:10:29.868Z,99292.05
2023-04-26T18:12:58.704Z,99290.98
2023-04-26T18:15:27.971Z,99291.30
2023-04-26T18:17:56.850Z,99291.96
2023-04-26T18:20:25.233Z,99290.83
2023-04-26T18:22:54.990Z,99289.67
2023-04-26T18:25:23.479Z,99287.48
2023-04-26T18:27:51.267Z,99285.25
2023-04-26T18:30:19.202Z,99285.92
2023-04-26T18:32:48.676Z,99287.21
2023-04-26T18:35:17.350Z,99288.73
2023-04-26T18:37:46.461Z,99287.40
2023-04-26T18:40:14.975Z,99286.34
2023-04-26T18:42:45.313Z,99291.39
2023-04-26T18:45:13.293Z,99285.81
2023-04-26T18:47:41.595Z,99283.64
2023-04-26T18:50:10.676Z,99287.67
2023-04-26T18:52:40.035Z,99289.19
2023-04-26T18:55:09.489Z,99287.66
2023-04-26T18:57:37.404Z,99286.13
2023-04-26T19:00:07.322Z,99286.58
2023-04-26T19:02:39.964Z,99289.38
2023-04-26T19:05:10.629Z,99287.38
2023-04-26T19:07:39.010Z,99287.05
2023-04-26T19:10:07.905Z,99286.20
2023-04-26T19:12:36.077Z,99284.10
2023-04-26T19:15:05.772Z,99282.45
2023-04-26T19:17:36.463Z,99283.86
2023-04-26T19:20:11.062Z,99291.01
2023-04-26T19:22:42.040Z,99289.27
2023-04-26T19:25:10.674Z,99286.13
2023-04-26T19:27:39.799Z,99287.83
2023-04-26T19:30:08.832Z,99289.61
2023-04-26T19:32:37.133Z,99289.52
2023-04-26T19:35:06.822Z,99286.88
2023-04-26T19:37:35.757Z,99289.20
2023-04-26T19:40:08.502Z,99287.38
2023-04-26T19:42:35.924Z,99283.79
2023-04-26T19:45:03.655Z,99288.84
2023-04-26T19:47:31.865Z,99283.52
2023-04-26T19:50:00.118Z,99284.86
2023-04-26T19:52:27.947Z,99285.02
2023-04-26T19:54:55.414Z,99283.05
2023-04-26T19:57:23.282Z,99285.21
2023-04-26T19:59:51.447Z,99282.35
2023-04-26T20:02:18.896Z,99281.02
2023-04-26T20:04:46.574Z,99279.76
2023-04-26T20:07:14.153Z,99275.88
2023-04-26T20:09:41.940Z,99279.62
2023-04-26T20:12:10.074Z,99280.02
2023-04-26T20:14:38.762Z,99281.79
2023-04-26T20:17:06.958Z,99279.95
2023-04-26T20:19:34.861Z,99281.69
2023-04-26T20:22:02.618Z,99283.33
2023-04-26T20:24:30.164Z,99288.21
2023-04-26T20:26:58.330Z,99286.27
2023-04-26T20:29:25.838Z,99285.97
2023-04-26T20:31:53.693Z,99284.27
2023-04-26T20:34:21.340Z,99284.05
2023-04-26T20:36:49.351Z,99284.73
2023-04-26T20:39:16.886Z,99287.24
2023-04-26T20:41:44.570Z,99287.70
2023-04-26T20:44:12.555Z,99285.79
2023-04-26T20:46:40.240Z,99283.55
2023-04-26T20:49:07.872Z,99282.17
2023-04-26T20:51:36.775Z,99281.08
2023-04-26T20:54:04.918Z,99288.10
2023-04-26T20:56:32.746Z,99289.86
2023-04-26T20:59:00.522Z,99290.52
2023-04-26T21:01:28.076Z,99293.60
2023-04-26T21:03:56.060Z,99291.75
2023-04-26T21:06:23.828Z,99297.89
2023-04-26T21:08:51.629Z,99296.50
2023-04-26T21:11:19.708Z,99298.46
2023-04-26T21:13:48.349Z,99298.64
2023-04-26T21:16:16.046Z,99299.61
2023-04-26T21:18:43.646Z,99298.70
2023-04-26T21:21:12.077Z,99300.77
2023-04-26T21:23:40.407Z,99298.08
2023-04-26T21:26:08.543Z,99295.10
2023-04-26T21:28:36.377Z,99297.08
2023-04-26T21:31:07.571Z,99289.87
2023-04-26T21:33:36.691Z,99292.73
2023-04-26T21:36:04.944Z,99294.42
2023-04-26T21:38:34.930Z,99296.95
2023-04-26T21:41:02.949Z,99297.13
2023-04-26T21:43:31.218Z,99295.39
2023-04-26T21:45:59.151Z,99290.34
2023-04-26T21:48:27.035Z,99293.30
2023-04-26T21:50:54.796Z,99291.08
2023-04-26T21:53:22.456Z,99289.72
2023-04-26T21:55:54.189Z,99292.81
2023-04-26T21:58:22.979Z,99299.10
2023-04-26T22:00:50.817Z,99296.48
2023-04-26T22:03:18.779Z,99299.88
2023-04-26T22:05:47.896Z,99303.72
2023-04-26T22:08:16.125Z,99303.55
2023-04-26T22:10:44.108Z,99305.19
2023-04-26T22:13:12.006Z,99304.07
2023-04-26T22:15:40.217Z,99302.93
2023-04-26T22:18:08.014Z,99307.31
2023-04-26T22:20:35.816Z,99303.77
2023-04-26T22:23:03.912Z,99309.17
2023-04-26T22:25:31.921Z,99306.73
2023-04-26T22:27:59.998Z,99307.89
2023-04-26T22:30:27.483Z,99305.06
2023-04-26T22:32:57.957Z,99299.63
2023-04-26T22:35:25.535Z,99304.13
2023-04-26T22:37:53.279Z,99302.02
2023-04-26T22:40:21.038Z,99299.66
2023-04-26T22:42:49.249Z,99299.05
2023-04-26T22:45:17.395Z,99299.26
2023-04-26T22:47:44.816Z,99298.64
2023-04-26T22:50:12.778Z,99297.30
2023-04-26T22:52:41.152Z,99292.80
2023-04-26T22:55:09.311Z,99292.20
2023-04-26T22:57:37.562Z,99291.04
2023-04-26T23:00:07.402Z,99288.84
2023-04-26T23:02:35.288Z,99286.40
2023-04-26T23:05:04.079Z,99283.83
2023-04-26T23:07:33.815Z,99285.96
2023-04-26T23:10:01.441Z,99279.62
2023-04-26T23:12:34.540Z,99278.75
2023-04-26T23:15:07.914Z,99280.11
2023-04-26T23:17:36.034Z,99278.59
2023-04-26T23:20:11.941Z,99277.19
2023-04-26T23:22:43.480Z,99278.34
2023-04-26T23:25:10.917Z,99277.11
2023-04-26T23:27:38.741Z,99276.33
2023-04-26T23:30:07.480Z,99274.83
2023-04-26T23:32:36.167Z,99275.77
2023-04-26T23:35:04.016Z,99273.01
2023-04-26T23:37:31.569Z,99271.73
2023-04-26T23:39:59.650Z,99273.91
2023-04-26T23:42:27.451Z,99271.95
2023-04-26T23:44:54.911Z,99273.88
2023-04-26T23:47:22.424Z,99274.11
2023-04-26T23:49:49.922Z,99272.55
2023-04-26T23:52:17.129Z,99270.11
2023-04-26T23:54:45.095Z,99269.25
2023-04-26T23:57:12.902Z,99271.44
2023-04-26T23:59:40.436Z,99274.80
